Time;durP1;ratioP1;P1;durP2;ratioP2;P2;SDS_P1;SDS_P2;PMS_P1;PMS_P2;Temp;Humidity;BMP_temperature;BMP_pressure;BME280_temperature;BME280_humidity;BME280_pressure;Samples;Min_cycle;Max_cycle;Signal;HPM_P1;HPM_P2
2021/12/16 00:01:59;;;;;;;40.22;23.48;;;;;;;;;;4861916;29;20097;-83
2021/12/16 00:31:29;;;;;;;32.03;19.63;;;;;;;;;;4840258;29;20402;-83
2021/12/16 00:34:02;;;;;;;35.47;19.30;;;;;;;;;;4840376;29;20030;-83
2021/12/16 00:36:33;;;;;;;28.33;18.00;;;;;;;;;;4839297;29;20504;-83
2021/12/16 00:38:59;;;;;;;27.58;17.20;;;;;;;;;;4840323;29;20056;-83
2021/12/16 00:41:25;;;;;;;27.85;17.98;;;;;;;;;;4839500;29;20041;-83
2021/12/16 00:44:06;;;;;;;33.58;17.48;;;;;;;;;;4840606;29;20102;-83
2021/12/16 00:54:30;;;;;;;26.60;17.10;;;;;;;;;;4838915;29;20094;-83
2021/12/16 00:57:02;;;;;;;29.23;16.58;;;;;;;;;;4852317;29;20041;-83
2021/12/16 00:59:33;;;;;;;;;;;;;;;;;;4862879;29;20029;-83
2021/12/16 01:02:18;;;;;;;27.10;16.20;;;;;;;;;;4879644;29;19912;-83
2021/12/16 01:50:11;;;;;;;33.83;17.48;;;;;;;;;;4876191;29;20052;-83
2021/12/16 01:55:43;;;;;;;28.10;16.17;;;;;;;;;;4881067;29;20409;-83
2021/12/16 02:01:15;;;;;;;24.52;15.50;;;;;;;;;;4880683;29;20033;-83
2021/12/16 02:03:49;;;;;;;23.08;14.52;;;;;;;;;;4881428;29;20056;-83
2021/12/16 02:09:05;;;;;;;26.60;14.77;;;;;;;;;;4880968;29;20119;-83
2021/12/16 02:35:46;;;;;;;20.88;12.80;;;;;;;;;;4878809;29;20093;-83
2021/12/16 02:38:15;;;;;;;19.63;12.43;;;;;;;;;;4860670;29;20078;-83
2021/12/16 02:40:41;;;;;;;23.65;12.85;;;;;;;;;;4860796;29;20075;-83
2021/12/16 02:50:59;;;;;;;19.70;10.98;;;;;;;;;;4873074;29;20056;-83
2021/12/16 02:53:25;;;;;;;18.02;11.40;;;;;;;;;;4878769;29;20378;-83
2021/12/16 02:55:53;;;;;;;18.13;11.50;;;;;;;;;;4877600;29;20471;-83
2021/12/16 02:58:19;;;;;;;19.70;11.85;;;;;;;;;;4879097;29;20032;-83
2021/12/16 03:00:47;;;;;;;19.67;11.63;;;;;;;;;;4878564;29;20462;-83
2021/12/16 03:03:14;;;;;;;21.35;12.45;;;;;;;;;;4859276;29;20065;-83
2021/12/16 03:05:40;;;;;;;20.33;11.65;;;;;;;;;;4859265;29;20110;-83
2021/12/16 03:08:07;;;;;;;19.08;11.15;;;;;;;;;;4858984;29;20398;-84
2021/12/16 03:16:03;;;;;;;;;;;;;;;;;;4879311;29;19912;-83
2021/12/16 03:20:51;;;;;;;;;;;;;;;;;;4880475;29;19908;-83
2021/12/16 03:38:32;;;;;;;;;;;;;;;;;;4879495;29;19911;-83
2021/12/16 03:40:58;;;;;;;;;;;;;;;;;;4880430;29;20340;-83
2021/12/16 03:43:24;;;;;;;;;;;;;;;;;;4880512;29;19908;-83
2021/12/16 03:48:34;;;;;;;;;;;;;;;;;;4879957;29;20492;-82
2021/12/16 03:51:00;;;;;;;;;;;;;;;;;;4879805;29;20314;-83
2021/12/16 03:53:26;;;;;;;;;;;;;;;;;;4880001;29;19995;-83
2021/12/16 03:55:52;;;;;;;;;;;;;;;;;;4878654;29;19916;-83
2021/12/16 03:58:18;;;;;;;;;;;;;;;;;;4880411;29;19915;-83
2021/12/16 04:00:44;;;;;;;;;;;;;;;;;;4879937;29;19931;-83
2021/12/16 04:03:10;;;;;;;;;;;;;;;;;;4868524;29;19908;-83
2021/12/16 04:05:36;;;;;;;;;;;;;;;;;;4862235;29;20369;-83
2021/12/16 04:08:01;;;;;;;;;;;;;;;;;;4872318;29;19908;-83
2021/12/16 04:10:32;;;;;;;;;;;;;;;;;;4879387;29;19914;-83
2021/12/16 04:13:00;;;;;;;;;;;;;;;;;;4879356;29;19908;-83
2021/12/16 04:15:26;;;;;;;;;;;;;;;;;;4880034;29;19911;-83
2021/12/16 04:17:52;;;;;;;;;;;;;;;;;;4880556;29;19908;-83
2021/12/16 04:20:18;;;;;;;;;;;;;;;;;;4880265;29;19915;-83
2021/12/16 04:22:44;;;;;;;;;;;;;;;;;;4877816;29;19912;-83
2021/12/16 04:25:10;;;;;;;;;;;;;;;;;;4880280;29;19915;-83
2021/12/16 04:27:36;;;;;;;;;;;;;;;;;;4866944;29;19908;-83
2021/12/16 04:30:02;;;;;;;;;;;;;;;;;;4874978;29;20372;-83
2021/12/16 04:32:28;;;;;;;;;;;;;;;;;;4880092;29;19908;-83
2021/12/16 04:34:55;;;;;;;;;;;;;;;;;;4880225;29;19915;-83
2021/12/16 04:37:21;;;;;;;;;;;;;;;;;;4879902;29;19912;-82
2021/12/16 04:39:47;;;;;;;;;;;;;;;;;;4873188;29;19908;-83
2021/12/16 04:42:13;;;;;;;;;;;;;;;;;;4879806;29;19912;-83
2021/12/16 04:44:39;;;;;;;;;;;;;;;;;;4874283;29;19991;-83
2021/12/16 04:47:04;;;;;;;;;;;;;;;;;;4878533;29;19915;-83
2021/12/16 04:52:08;;;;;;;;;;;;;;;;;;5003174;23;19924;-80
2021/12/16 04:54:34;;;;;;;;;;;;;;;;;;4879061;29;20425;-80
2021/12/16 04:57:00;;;;;;;;;;;;;;;;;;4880148;29;19959;-80
2021/12/16 04:59:26;;;;;;;;;;;;;;;;;;4880144;29;19912;-80
2021/12/16 05:01:52;;;;;;;;;;;;;;;;;;4879507;29;19998;-81
2021/12/16 05:04:17;;;;;;;;;;;;;;;;;;4879252;29;19911;-78
2021/12/16 05:06:43;;;;;;;;;;;;;;;;;;4879561;29;19946;-80
2021/12/16 05:09:12;;;;;;;;;;;;;;;;;;4878402;29;20011;-78
2021/12/16 05:11:38;;;;;;;;;;;;;;;;;;4878661;29;19955;-80
2021/12/16 05:14:04;;;;;;;;;;;;;;;;;;4878543;29;19954;-80
2021/12/16 05:16:30;;;;;;;;;;;;;;;;;;4862157;29;19912;-80
2021/12/16 05:18:56;;;;;;;;;;;;;;;;;;4878796;29;19959;-80
2021/12/16 05:21:44;;;;;;;;;;;;;;;;;;4879004;29;19914;-80
2021/12/16 05:24:25;;;;;;;;;;;;;;;;;;4879465;29;19939;-80
2021/12/16 05:26:51;;;;;;;;;;;;;;;;;;4860978;29;19915;-80
2021/12/16 05:29:17;;;;;;;;;;;;;;;;;;4872286;29;19998;-80
2021/12/16 05:31:43;;;;;;;;;;;;;;;;;;4879676;29;20427;-80
2021/12/16 05:34:09;;;;;;;;;;;;;;;;;;4878259;29;19911;-80
2021/12/16 05:36:35;;;;;;;;;;;;;;;;;;4879147;29;19912;-80
2021/12/16 05:39:01;;;;;;;;;;;;;;;;;;4877862;29;19919;-80
2021/12/16 05:41:27;;;;;;;;;;;;;;;;;;4879295;29;19911;-79
2021/12/16 05:43:52;;;;;;;;;;;;;;;;;;4877892;29;19907;-81
2021/12/16 05:46:18;;;;;;;;;;;;;;;;;;4879259;29;19907;-79
2021/12/16 05:48:44;;;;;;;;;;;;;;;;;;4879101;29;19911;-79
2021/12/16 05:51:10;;;;;;;;;;;;;;;;;;4877686;29;19920;-80
2021/12/16 05:53:36;;;;;;;;;;;;;;;;;;4871890;29;19908;-79
2021/12/16 05:56:02;;;;;;;;;;;;;;;;;;4867604;29;19919;-81
2021/12/16 05:58:28;;;;;;;;;;;;;;;;;;4873036;29;19915;-79
2021/12/16 06:00:54;;;;;;;;;;;;;;;;;;4862875;29;20355;-80
2021/12/16 06:03:21;;;;;;;;;;;;;;;;;;4873056;29;20280;-88
2021/12/16 06:05:47;;;;;;;;;;;;;;;;;;4870117;29;19931;-79
2021/12/16 06:08:13;;;;;;;;;;;;;;;;;;4878453;29;20356;-79
2021/12/16 06:13:27;;;;;;;;;;;;;;;;;;4878737;29;20003;-80
2021/12/16 06:27:13;;;;;;;;;;;;;;;;;;4876794;29;20383;-79
2021/12/16 06:29:39;;;;;;;;;;;;;;;;;;4864793;29;20012;-79
2021/12/16 06:32:05;;;;;;;;;;;;;;;;;;4876687;29;19963;-80
2021/12/16 06:34:31;;;;;;;;;;;;;;;;;;4881707;29;19911;-78
2021/12/16 06:36:58;;;;;;;;;;;;;;;;;;4882351;29;20265;-78
2021/12/16 06:39:24;;;;;;;;;;;;;;;;;;4882698;29;19964;-78
2021/12/16 06:41:50;;;;;;;;;;;;;;;;;;4881180;29;19908;-78
2021/12/16 06:44:27;;;;;;;;;;;;;;;;;;4882665;29;19907;-78
2021/12/16 06:46:59;;;;;;;;;;;;;;;;;;4882002;29;19939;-79
2021/12/16 06:49:25;;;;;;;;;;;;;;;;;;4882428;29;20414;-77
2021/12/16 06:51:56;;;;;;;;;;;;;;;;;;4881926;29;20417;-78
2021/12/16 06:54:29;;;;;;;;;;;;;;;;;;4882336;29;19940;-78
2021/12/16 06:59:29;;;;;;;;;;;;;;;;;;4882570;29;19912;-78
2021/12/16 07:02:14;;;;;;;;;;;;;;;;;;4881968;29;20324;-78
2021/12/16 07:04:43;;;;;;;;;;;;;;;;;;4882202;29;20375;-78
2021/12/16 07:07:09;;;;;;;;;;;;;;;;;;4881927;29;20355;-78
2021/12/16 07:09:35;;;;;;;;;;;;;;;;;;4882116;29;20007;-78
2021/12/16 07:12:01;;;;;;;;;;;;;;;;;;4882013;29;19912;-78
2021/12/16 07:14:35;;;;;;;;;;;;;;;;;;4882016;29;19968;-79
2021/12/16 07:17:01;;;;;;;;;;;;;;;;;;4881717;29;19950;-78
2021/12/16 07:19:27;;;;;;;;;;;;;;;;;;4881735;29;19915;-78
2021/12/16 07:21:53;;;;;;;;;;;;;;;;;;4881813;29;19908;-78
2021/12/16 07:24:19;;;;;;;;;;;;;;;;;;4881747;29;20002;-78
2021/12/16 07:26:45;;;;;;;;;;;;;;;;;;4881957;29;19908;-78
2021/12/16 07:29:11;;;;;;;;;;;;;;;;;;4881772;29;20359;-78
2021/12/16 07:31:38;;;;;;;;;;;;;;;;;;4880002;29;19914;-78
2021/12/16 07:34:04;;;;;;;;;;;;;;;;;;4881402;29;19935;-78
2021/12/16 07:36:30;;;;;;;;;;;;;;;;;;4881432;29;19912;-78
2021/12/16 07:38:56;;;;;;;;;;;;;;;;;;4881656;29;20403;-78
2021/12/16 07:41:25;;;;;;;;;;;;;;;;;;4881407;29;19915;-78
2021/12/16 07:44:10;;;;;;;;;;;;;;;;;;4879635;29;20312;-78
2021/12/16 07:46:36;;;;;;;;;;;;;;;;;;4861958;29;19912;-78
2021/12/16 07:49:01;;;;;;;;;;;;;;;;;;4862707;29;19911;-78
2021/12/16 07:51:27;;;;;;;;;;;;;;;;;;4871498;29;20399;-78
2021/12/16 07:53:53;;;;;;;;;;;;;;;;;;4881247;29;19907;-77
2021/12/16 07:56:19;;;;;;;;;;;;;;;;;;4881296;29;20378;-78
2021/12/16 07:58:45;;;;;;;;;;;;;;;;;;4880990;29;19908;-78
2021/12/16 08:01:11;;;;;;;;;;;;;;;;;;4879460;29;19908;-77
2021/12/16 08:03:38;;;;;;;;;;;;;;;;;;4881164;29;20391;-77
2021/12/16 08:06:05;;;;;;;;;;;;;;;;;;4880923;29;19998;-78
2021/12/16 08:08:31;;;;;;;;;;;;;;;;;;4880986;29;19919;-78
2021/12/16 08:10:58;;;;;;;;;;;;;;;;;;4880764;29;19907;-78
2021/12/16 08:13:24;;;;;;;;;;;;;;;;;;4880586;29;19907;-78
2021/12/16 08:15:49;;;;;;;;;;;;;;;;;;4880711;29;19912;-78
2021/12/16 08:18:15;;;;;;;;;;;;;;;;;;4880815;29;19963;-78
2021/12/16 08:20:41;;;;;;;;;;;;;;;;;;4880945;29;20002;-78
2021/12/16 08:23:07;;;;;;;;;;;;;;;;;;4879256;29;19912;-78
2021/12/16 08:25:33;;;;;;;;;;;;;;;;;;4880620;29;19984;-78
2021/12/16 08:27:59;;;;;;;;;;;;;;;;;;4880450;29;20407;-77
2021/12/16 08:30:25;;;;;;;;;;;;;;;;;;4880682;29;19915;-78
2021/12/16 08:32:51;;;;;;;;;;;;;;;;;;4880400;29;19918;-78
2021/12/16 08:35:17;;;;;;;;;;;;;;;;;;4880594;29;19976;-78
2021/12/16 08:37:43;;;;;;;;;;;;;;;;;;4880484;29;20283;-78
2021/12/16 08:40:09;;;;;;;;;;;;;;;;;;4880376;29;19908;-78
2021/12/16 08:42:34;;;;;;;;;;;;;;;;;;4880151;29;19915;-78
2021/12/16 08:45:00;;;;;;;;;;;;;;;;;;4880108;29;19908;-78
2021/12/16 08:47:26;;;;;;;;;;;;;;;;;;4880401;29;19908;-77
2021/12/16 08:49:52;;;;;;;;;;;;;;;;;;4878947;29;19907;-78
2021/12/16 08:52:18;;;;;;;;;;;;;;;;;;4879815;29;19920;-78
2021/12/16 08:54:44;;;;;;;;;;;;;;;;;;4880332;29;19908;-78
2021/12/16 08:57:11;;;;;;;;;;;;;;;;;;4879582;29;19911;-78
2021/12/16 08:59:36;;;;;;;;;;;;;;;;;;4880246;29;19908;-78
2021/12/16 09:02:02;;;;;;;;;;;;;;;;;;4878798;29;19907;-78
2021/12/16 09:04:28;;;;;;;;;;;;;;;;;;4880101;29;19908;-78
2021/12/16 09:06:54;;;;;;;;;;;;;;;;;;4880036;29;19908;-78
2021/12/16 09:09:20;;;;;;;;;;;;;;;;;;4879753;29;19915;-78
2021/12/16 09:12:04;;;;;;;;;;;;;;;;;;4879682;29;20391;-78
2021/12/16 09:14:30;;;;;;;;;;;;;;;;;;4880114;29;19908;-78
2021/12/16 09:16:56;;;;;;;;;;;;;;;;;;4879670;29;19918;-78
2021/12/16 09:19:22;;;;;;;;;;;;;;;;;;4879743;29;20257;-78
2021/12/16 09:21:48;;;;;;;;;;;;;;;;;;4879713;29;19908;-79
2021/12/16 09:24:14;;;;;;;;;;;;;;;;;;4879634;29;19955;-78
2021/12/16 09:26:40;;;;;;;;;;;;;;;;;;4878112;29;19950;-78
2021/12/16 09:29:06;;;;;;;;;;;;;;;;;;4879649;29;19946;-78
2021/12/16 09:31:32;;;;;;;;;;;;;;;;;;4879516;29;19998;-78
2021/12/16 09:34:04;;;;;;;;;;;;;;;;;;4879646;29;19987;-78
2021/12/16 09:36:30;;;;;;;;;;;;;;;;;;4879688;29;19995;-78
2021/12/16 09:38:57;;;;;;;;;;;;;;;;;;4879485;29;20352;-78
2021/12/16 09:41:22;;;;;;;;;;;;;;;;;;4879267;29;19908;-78
2021/12/16 09:43:48;;;;;;;;;;;;;;;;;;4879777;29;20019;-78
2021/12/16 09:46:14;;;;;;;;;;;;;;;;;;4879167;29;19908;-78
2021/12/16 09:48:40;;;;;;;;;;;;;;;;;;4879577;29;19954;-78
2021/12/16 09:51:06;;;;;;;;;;;;;;;;;;4878966;29;19920;-78
2021/12/16 09:53:32;;;;;;;;;;;;;;;;;;4877738;29;19962;-78
2021/12/16 09:56:00;;;;;;;;;;;;;;;;;;4878773;29;19920;-78
2021/12/16 09:58:26;;;;;;;;;;;;;;;;;;4879356;29;19907;-77
2021/12/16 10:00:52;;;;;;;;;;;;;;;;;;4879606;29;20288;-77
2021/12/16 10:03:18;;;;;;;;;;;;;;;;;;4879086;29;19955;-78
2021/12/16 10:05:44;;;;;;;;;;;;;;;;;;4879313;29;19959;-78
2021/12/16 10:08:10;;;;;;;;;;;;;;;;;;4879938;29;20372;-78
2021/12/16 10:10:36;;;;;;;;;;;;;;;;;;4882777;29;19908;-78
2021/12/16 10:13:03;;;;;;;;;;;;;;;;;;4883083;29;19907;-79
2021/12/16 10:17:58;;;;;;;;;;;;;;;;;;4883183;29;19972;-78
2021/12/16 10:20:24;;;;;;;;;;;;;;;;;;4882568;29;20368;-78
2021/12/16 10:22:51;;;;;;;;;;;;;;;;;;4882770;29;19908;-78
2021/12/16 10:25:17;;;;;;;;;;;;;;;;;;4882319;29;19907;-78
2021/12/16 10:27:43;;;;;;;;;;;;;;;;;;4883044;29;20367;-78
2021/12/16 10:30:08;;;;;;;;;;;;;;;;;;4882728;29;19915;-78
2021/12/16 10:32:36;;;;;;;;;;;;;;;;;;4882652;29;19914;-78
2021/12/16 10:35:02;;;;;;;;;;;;;;;;;;4882714;29;20304;-78
2021/12/16 10:37:27;;;;;;;;;;;;;;;;;;4882529;29;20044;-78
2021/12/16 10:39:53;;;;;;;;;;;;;;;;;;4882370;29;19955;-78
2021/12/16 10:42:19;;;;;;;;;;;;;;;;;;4882154;29;19908;-78
2021/12/16 10:44:45;;;;;;;;;;;;;;;;;;4882378;29;19908;-78
2021/12/16 10:47:13;;;;;;;;;;;;;;;;;;4882442;29;19918;-78
2021/12/16 10:49:38;;;;;;;;;;;;;;;;;;4882386;29;19947;-78
2021/12/16 10:52:04;;;;;;;;;;;;;;;;;;4882098;29;20316;-78
2021/12/16 10:54:30;;;;;;;;;;;;;;;;;;4882035;29;19999;-78
2021/12/16 10:56:56;;;;;;;;;;;;;;;;;;4882163;29;19911;-78
2021/12/16 10:59:22;;;;;;;;;;;;;;;;;;4882145;29;20291;-78
2021/12/16 11:01:48;;;;;;;;;;;;;;;;;;4880844;29;19979;-79
2021/12/16 11:04:14;;;;;;;;;;;;;;;;;;4882168;29;20356;-78
2021/12/16 11:06:40;;;;;;;;;;;;;;;;;;4880717;29;20011;-78
2021/12/16 11:09:06;;;;;;;;;;;;;;;;;;4881748;29;19930;-78
2021/12/16 11:11:32;;;;;;;;;;;;;;;;;;4881909;29;19907;-78
2021/12/16 11:13:58;;;;;;;;;;;;;;;;;;4880535;29;19908;-78
2021/12/16 11:16:23;;;;;;;;;;;;;;;;;;4881714;29;19919;-77
2021/12/16 11:18:49;;;;;;;;;;;;;;;;;;4881810;29;19908;-78
2021/12/16 11:21:15;;;;;;;;;;;;;;;;;;4880570;29;19908;-78
2021/12/16 11:23:41;;;;;;;;;;;;;;;;;;4881427;29;19907;-78
2021/12/16 11:26:07;;;;;;;;;;;;;;;;;;4881740;29;20376;-78
2021/12/16 11:28:33;;;;;;;;;;;;;;;;;;4881787;29;20002;-77
2021/12/16 11:30:59;;;;;;;;;;;;;;;;;;4874903;29;19912;-78
2021/12/16 11:33:26;;;;;;;;;;;;;;;;;;4866503;29;19994;-79
2021/12/16 11:35:52;;;;;;;;;;;;;;;;;;4881533;29;19918;-78
2021/12/16 11:38:18;;;;;;;;;;;;;;;;;;4879145;29;20309;-77
2021/12/16 11:40:44;;;;;;;;;;;;;;;;;;4880283;29;19977;-78
2021/12/16 11:43:10;;;;;;;;;;;;;;;;;;4880217;29;19912;-78
2021/12/16 11:45:36;;;;;;;;;;;;;;;;;;4880950;29;19908;-78
2021/12/16 11:48:01;;;;;;;;;;;;;;;;;;4880883;29;19912;-78
2021/12/16 11:50:27;;;;;;;;;;;;;;;;;;4880952;29;19923;-77
2021/12/16 11:52:53;;;;;;;;;;;;;;;;;;4880190;29;20387;-78
2021/12/16 11:55:19;;;;;;;;;;;;;;;;;;4877873;29;19912;-77
2021/12/16 11:57:47;;;;;;;;;;;;;;;;;;4877579;29;19918;-77
2021/12/16 12:00:13;;;;;;;;;;;;;;;;;;4879374;29;19908;-77
2021/12/16 12:02:39;;;;;;;;;;;;;;;;;;4879043;29;19911;-77
2021/12/16 12:05:04;;;;;;;;;;;;;;;;;;4878746;29;19911;-77
2021/12/16 12:07:30;;;;;;;;;;;;;;;;;;4874333;29;19916;-77
2021/12/16 12:09:56;;;;;;;;;;;;;;;;;;4873651;29;19955;-77
2021/12/16 12:12:22;;;;;;;;;;;;;;;;;;4864315;29;20341;-78
2021/12/16 12:14:48;;;;;;;;;;;;;;;;;;4861416;29;19995;-78
2021/12/16 12:17:16;;;;;;;;;;;;;;;;;;4869719;29;19912;-77
2021/12/16 12:19:42;;;;;;;;;;;;;;;;;;4871492;29;19916;-78
2021/12/16 12:22:08;;;;;;;;;;;;;;;;;;4872080;29;19908;-77
2021/12/16 12:24:34;;;;;;;;;;;;;;;;;;4869559;29;19959;-77
2021/12/16 15:58:24;;;;;;;;;;;;;;;;;;4858598;29;19930;-79
2021/12/16 16:00:50;;;;;;;;;;;;;;;;;;4860032;29;20307;-79
2021/12/16 16:03:16;;;;;;;;;;;;;;;;;;4862179;29;19998;-79
2021/12/16 16:05:42;;;;;;;;;;;;;;;;;;4859747;29;20282;-81
2021/12/16 16:08:08;;;;;;;;;;;;;;;;;;4861375;29;19964;-80
2021/12/16 16:10:34;;;;;;;;;;;;;;;;;;4861612;29;19908;-79
2021/12/16 16:13:00;;;;;;;;;;;;;;;;;;4861098;29;20272;-80
2021/12/16 16:15:26;;;;;;;;;;;;;;;;;;4862053;29;20336;-80
2021/12/16 16:18:36;;;;;;;;;;;;;;;;;;4861236;29;19908;-79
2021/12/16 16:20:41;;;;;;;;;;;;;;;;;;4859794;29;19964;-79
2021/12/16 16:23:07;;;;;;;;;;;;;;;;;;4860500;29;19912;-79
2021/12/16 16:25:33;;;;;;;;;;;;;;;;;;4861467;29;19908;-79
2021/12/16 16:27:58;;;;;;;;;;;;;;;;;;4860915;29;19908;-79
2021/12/16 16:30:25;;;;;;;;;;;;;;;;;;4861488;29;19908;-80
2021/12/16 16:32:50;;;;;;;;;;;;;;;;;;4860999;29;19908;-80
2021/12/16 16:35:16;;;;;;;;;;;;;;;;;;4859867;29;20280;-80
2021/12/16 16:37:42;;;;;;;;;;;;;;;;;;4861156;29;19908;-79
2021/12/16 16:40:08;;;;;;;;;;;;;;;;;;4860287;29;19908;-79
2021/12/16 16:42:34;;;;;;;;;;;;;;;;;;4861043;29;20380;-79
2021/12/16 16:45:00;;;;;;;;;;;;;;;;;;4860692;29;19915;-79
2021/12/16 16:48:26;;;;;;;;;;;;;;;;;;4859943;29;19916;-80
2021/12/16 16:50:16;;;;;;;;;;;;;;;;;;4860162;29;19922;-80
2021/12/16 16:52:42;;;;;;;;;;;;;;;;;;4864516;29;19955;-80
2021/12/16 16:55:08;;;;;;;;;;;;;;;;;;4859990;29;20059;-80
2021/12/16 16:57:34;;;;;;;;;;;;;;;;;;4860460;29;19926;-79
2021/12/16 17:00:00;;;;;;;;;;;;;;;;;;4860283;29;19960;-80
2021/12/16 17:02:26;;;;;;;;;;;;;;;;;;4860633;29;20265;-79
2021/12/16 17:04:52;;;;;;;;;;;;;;;;;;4860805;29;19908;-79
2021/12/16 17:07:18;;;;;;;;;;;;;;;;;;4860160;29;19992;-80
2021/12/16 17:09:44;;;;;;;;;;;;;;;;;;4860418;29;19912;-80
2021/12/16 17:12:11;;;;;;;;;;;;;;;;;;4860105;29;19908;-81
2021/12/16 17:14:40;;;;;;;;;;;;;;;;;;4860016;29;19916;-81
2021/12/16 17:17:13;;;;;;;;;;;;;;;;;;4859719;29;19916;-82
2021/12/16 17:19:39;;;;;;;;;;;;;;;;;;4859879;29;20749;-79
2021/12/16 17:22:05;;;;;;;;;;;;;;;;;;4860241;29;19994;-78
2021/12/16 17:24:31;;;;;;;;;;;;;;;;;;4860243;29;19908;-77
2021/12/16 17:26:57;;;;;;;;;;;;;;;;;;4860550;29;19908;-80
2021/12/16 17:29:23;;;;;;;;;;;;;;;;;;4873816;29;19909;-81
2021/12/16 17:31:48;;;;;;;;;;;;;;;;;;4859636;29;19912;-78
2021/12/16 17:34:14;;;;;;;;;;;;;;;;;;4859667;29;19912;-80
2021/12/16 17:36:40;;;;;;;;;;;;;;;;;;4860353;29;19964;-78
2021/12/16 17:39:06;;;;;;;;;;;;;;;;;;4871541;29;19912;-78
2021/12/16 17:41:33;;;;;;;;;;;;;;;;;;4860358;29;19914;-80
2021/12/16 17:43:58;;;;;;;;;;;;;;;;;;4860394;29;19912;-80
2021/12/16 17:46:24;;;;;;;;;;;;;;;;;;4860159;29;19908;-81
2021/12/16 17:48:51;;;;;;;;;;;;;;;;;;4860679;29;19912;-81
2021/12/16 17:51:17;;;;;;;;;;;;;;;;;;4860425;29;19961;-81
2021/12/16 17:53:43;;;;;;;;;;;;;;;;;;4860019;29;19912;-80
2021/12/16 17:56:08;;;;;;;;;;;;;;;;;;4859357;29;20300;-81
2021/12/16 17:58:34;;;;;;;;;;;;;;;;;;4859602;29;19923;-80
2021/12/16 18:01:04;;;;;;;;;;;;;;;;;;4860292;29;19908;-80
2021/12/16 18:03:30;;;;;;;;;;;;;;;;;;4859552;29;20272;-81
2021/12/16 18:05:56;;;;;;;;;;;;;;;;;;4860687;29;19912;-82
2021/12/16 18:08:22;;;;;;;;;;;;;;;;;;4859671;29;19908;-80
2021/12/16 18:10:48;;;;;;;;;;;;;;;;;;4860260;29;19987;-80
2021/12/16 18:13:14;;;;;;;;;;;;;;;;;;4859448;29;19914;-79
2021/12/16 18:15:40;;;;;;;;;;;;;;;;;;4859816;29;20313;-84
2021/12/16 18:18:07;;;;;;;;;;;;;;;;;;4860003;29;19916;-84
2021/12/16 18:20:33;;;;;;;;;;;;;;;;;;4859951;29;19915;-84
2021/12/16 18:22:59;;;;;;;;;;;;;;;;;;4859540;29;19995;-81
2021/12/16 18:25:31;;;;;;;;;;;;;;;;;;4858518;29;20424;-82
2021/12/16 18:27:57;;;;;;;;;;;;;;;;;;4860243;29;19908;-83
2021/12/16 18:30:23;;;;;;;;;;;;;;;;;;4862417;29;19908;-87
2021/12/16 18:32:49;;;;;;;;;;;;;;;;;;4864116;29;19947;-81
2021/12/16 18:35:15;;;;;;;;;;;;;;;;;;4863133;29;19908;-80
2021/12/16 18:37:41;;;;;;;;;;;;;;;;;;4867714;29;19908;-83
2021/12/16 18:40:07;;;;;;;;;;;;;;;;;;4865908;29;20288;-81
2021/12/16 18:42:33;;;;;;;;;;;;;;;;;;4862461;29;19943;-81
2021/12/16 18:45:00;;;;;;;;;;;;;;;;;;4863031;29;19908;-86
2021/12/16 18:47:39;;;;;;;;;;;;;;;;;;4861784;29;19912;-88
2021/12/16 18:50:11;;;;;;;;;;;;;;;;;;4862919;29;20407;-80
2021/12/16 18:54:28;;;;;;;;;;;;;;;;;;4863101;29;19936;-82
2021/12/16 18:55:32;;;;;;;;;;;;;;;;;;4864372;29;19917;-86
2021/12/16 18:57:58;;;;;;;;;;;;;;;;;;4859947;29;19984;-83
2021/12/16 19:00:24;;;;;;;;;;;;;;;;;;4859499;29;20393;-81
2021/12/16 19:02:50;;;;;;;;;;;;;;;;;;4862286;29;19916;-83
2021/12/16 19:05:17;;;;;;;;;;;;;;;;;;4863076;29;19912;-85
2021/12/16 19:07:43;;;;;;;;;;;;;;;;;;4862801;29;19912;-83
2021/12/16 19:10:08;;;;;;;;;;;;;;;;;;4862830;29;19914;-81
2021/12/16 19:12:35;;;;;;;;;;;;;;;;;;4858558;29;19908;-82
2021/12/16 19:15:02;;;;;;;;;;;;;;;;;;4858384;29;19908;-82
2021/12/16 19:17:27;;;;;;;;;;;;;;;;;;4860855;29;19912;-82
2021/12/16 19:19:54;;;;;;;;;;;;;;;;;;4850634;29;19916;-82
2021/12/16 19:22:20;;;;;;;;;;;;;;;;;;4844983;29;20242;-81
2021/12/16 19:24:46;;;;;;;;;;;;;;;;;;4843996;29;19908;-82
2021/12/16 19:27:12;;;;;;;;;;;;;;;;;;4861695;29;19908;-82
2021/12/16 19:29:38;;;;;;;;;;;;;;;;;;4862605;29;19908;-81
2021/12/16 19:32:04;;;;;;;;;;;;;;;;;;4849450;29;19912;-82
2021/12/16 19:34:30;;;;;;;;;;;;;;;;;;4844117;29;20358;-82
2021/12/16 19:36:56;;;;;;;;;;;;;;;;;;4859302;29;19927;-84
2021/12/16 19:39:22;;;;;;;;;;;;;;;;;;4856673;29;19908;-84
2021/12/16 19:41:48;;;;;;;;;;;;;;;;;;4850636;29;19916;-84
2021/12/16 19:44:14;;;;;;;;;;;;;;;;;;4843896;29;20364;-83
2021/12/16 19:46:40;;;;;;;;;;;;;;;;;;4859034;29;19908;-86
2021/12/16 19:49:06;;;;;;;;;;;;;;;;;;4862815;29;19911;-83
2021/12/16 19:51:32;;;;;;;;;;;;;;;;;;4871341;29;20384;-82
2021/12/16 19:53:58;;;;;;;;;;;;;;;;;;4875551;29;19908;-82
2021/12/16 19:56:24;;;;;;;;;;;;;;;;;;4861221;29;19920;-82
2021/12/16 19:58:50;;;;;;;;;;;;;;;;;;4861109;29;19993;-82
2021/12/16 20:01:15;;;;;;;;;;;;;;;;;;4859649;29;19912;-84
2021/12/16 20:03:41;;;;;;;;;;;;;;;;;;4859980;29;19964;-83
2021/12/16 20:06:07;;;;;;;;;;;;;;;;;;4849353;29;19916;-81
2021/12/16 20:08:36;;;;;;;;;;;;;;;;;;4861603;29;19933;-80
2021/12/16 20:11:02;;;;;;;;;;;;;;;;;;4861008;29;19908;-83
2021/12/16 20:13:28;;;;;;;;;;;;;;;;;;4858447;29;19916;-83
2021/12/16 20:15:54;;;;;;;;;;;;;;;;;;4860436;29;19923;-82
2021/12/16 20:18:20;;;;;;;;;;;;;;;;;;4860552;29;19916;-83
2021/12/16 20:20:46;;;;;;;;;;;;;;;;;;4858731;29;20424;-82
2021/12/16 20:23:12;;;;;;;;;;;;;;;;;;4861379;29;20003;-82
2021/12/16 20:25:38;;;;;;;;;;;;;;;;;;4861361;29;19910;-81
2021/12/16 20:28:04;;;;;;;;;;;;;;;;;;4861698;29;19956;-81
2021/12/16 20:30:29;;;;;;;;;;;;;;;;;;4861316;29;19904;-82
2021/12/16 20:32:56;;;;;;;;;;;;;;;;;;4860917;29;19908;-81
2021/12/16 20:35:22;;;;;;;;;;;;;;;;;;4860952;29;19919;-81
2021/12/16 20:37:48;;;;;;;;;;;;;;;;;;4860283;29;19912;-82
2021/12/16 20:40:14;;;;;;;;;;;;;;;;;;4861122;29;19912;-82
2021/12/16 20:42:40;;;;;;;;;;;;;;;;;;4861302;29;19904;-82
2021/12/16 20:45:11;;;;;;;;;;;;;;;;;;4860889;29;20352;-82
2021/12/16 20:47:36;;;;;;;;;;;;;;;;;;4861074;29;19915;-82
2021/12/16 20:50:03;;;;;;;;;;;;;;;;;;4874987;29;19908;-82
2021/12/16 20:52:29;;;;;;;;;;;;;;;;;;4859789;29;19967;-82
2021/12/16 20:54:55;;;;;;;;;;;;;;;;;;4860806;29;20002;-81
2021/12/16 20:57:21;;;;;;;;;;;;;;;;;;4860862;29;20301;-82
2021/12/16 20:59:47;;;;;;;;;;;;;;;;;;4875009;29;19920;-82
2021/12/16 21:02:13;;;;;;;;;;;;;;;;;;4860462;29;20339;-82
2021/12/16 21:04:39;;;;;;;;;;;;;;;;;;4860682;29;20262;-82
2021/12/16 21:07:05;;;;;;;;;;;;;;;;;;4874427;29;19976;-82
2021/12/16 21:09:31;;;;;;;;;;;;;;;;;;4860774;29;19915;-82
2021/12/16 21:11:57;;;;;;;;;;;;;;;;;;4860314;29;20376;-82
2021/12/16 21:14:23;;;;;;;;;;;;;;;;;;4860757;29;19964;-82
2021/12/16 21:16:49;;;;;;;;;;;;;;;;;;4860028;29;19919;-82
2021/12/16 21:19:14;;;;;;;;;;;;;;;;;;4859765;29;19915;-84
2021/12/16 21:21:40;;;;;;;;;;;;;;;;;;4858524;29;19916;-82
2021/12/16 21:24:06;;;;;;;;;;;;;;;;;;4861048;29;20320;-82
2021/12/16 21:26:32;;;;;;;;;;;;;;;;;;4860456;29;19908;-82
2021/12/16 21:28:58;;;;;;;;;;;;;;;;;;4858741;29;20379;-82
2021/12/16 21:31:24;;;;;;;;;;;;;;;;;;4859822;29;19908;-82
2021/12/16 21:33:56;;;;;;;;;;;;;;;;;;4874251;29;20003;-82
2021/12/16 21:36:26;;;;;;;;;;;;;;;;;;4860102;29;20061;-82
2021/12/16 21:38:52;;;;;;;;;;;;;;;;;;4859718;29;19943;-82
2021/12/16 21:41:17;;;;;;;;;;;;;;;;;;4860179;29;20378;-82
2021/12/16 21:43:43;;;;;;;;;;;;;;;;;;4860237;29;20051;-82
2021/12/16 21:46:09;;;;;;;;;;;;;;;;;;4858860;29;20321;-82
2021/12/16 21:48:35;;;;;;;;;;;;;;;;;;4859792;29;19951;-82
2021/12/16 21:51:01;;;;;;;;;;;;;;;;;;4859029;29;20456;-82
2021/12/16 21:53:27;;;;;;;;;;;;;;;;;;4860134;29;20083;-82
2021/12/16 21:55:53;;;;;;;;;;;;;;;;;;4859877;29;19918;-82
2021/12/16 21:58:20;;;;;;;;;;;;;;;;;;4859917;29;20368;-82
2021/12/16 22:00:46;;;;;;;;;;;;;;;;;;4859465;29;20341;-82
2021/12/16 22:03:12;;;;;;;;;;;;;;;;;;4860320;29;19908;-82
2021/12/16 22:05:38;;;;;;;;;;;;;;;;;;4862236;29;19912;-83
2021/12/16 22:08:04;;;;;;;;;;;;;;;;;;4863362;29;19912;-82
2021/12/16 22:10:30;;;;;;;;;;;;;;;;;;4854270;29;19912;-82
2021/12/16 22:12:56;;;;;;;;;;;;;;;;;;4854119;29;19964;-82
2021/12/16 22:15:22;;;;;;;;;;;;;;;;;;4852504;29;19915;-82
2021/12/16 22:17:47;;;;;;;;;;;;;;;;;;4855816;29;20335;-82
2021/12/16 22:20:13;;;;;;;;;;;;;;;;;;4853969;29;19908;-82
2021/12/16 22:22:39;;;;;;;;;;;;;;;;;;4852852;29;19908;-82
2021/12/16 22:25:05;;;;;;;;;;;;;;;;;;4852405;29;19908;-82
2021/12/16 22:27:31;;;;;;;;;;;;;;;;;;4853899;29;19955;-82
2021/12/16 22:29:57;;;;;;;;;;;;;;;;;;4868559;29;19999;-82
2021/12/16 22:32:23;;;;;;;;;;;;;;;;;;4856635;29;20003;-82
2021/12/16 22:34:49;;;;;;;;;;;;;;;;;;4854527;29;19912;-82
2021/12/16 22:37:15;;;;;;;;;;;;;;;;;;4867714;29;19920;-82
2021/12/16 22:39:41;;;;;;;;;;;;;;;;;;4854169;29;20053;-82
2021/12/16 22:42:08;;;;;;;;;;;;;;;;;;4852002;29;20342;-82
2021/12/16 22:44:34;;;;;;;;;;;;;;;;;;4855926;29;20392;-82
2021/12/16 22:47:00;;;;;;;;;;;;;;;;;;4866308;29;19909;-82
2021/12/16 22:49:26;;;;;;;;;;;;;;;;;;4851971;29;19978;-82
2021/12/16 22:51:52;;;;;;;;;;;;;;;;;;4855214;29;19976;-82